Naples, FL

11:01 EST le 06 Mars 2015 (GMT -0500)
KFLNAPLE31 | Change Station
CLOSE
Current Station
Stations météorologiques personnelles
Location: Naples, FL
Altitude: 20 ft
Stations météo à proximité

Alt. 20 ft 26.16 °N, 81.78 °W | Updated 7 minutes ago

Mostly Cloudy
Nuageux
76.6 ° F
Paraît 77 ° F
N
0.0
Vent Variable Vent de NO
Gusts 9.0 mph

Aujourd'hui
Haut(e) -- | Bas -- ° F
--% Risque de précip.
Hier
Haut(e) -- | Bas -- ° F
Precip. -- pouce
6:45 AM 6:31 PM
Pleine lune, 99% visible
Pression 30.20 pouce
Visibilité 10.0 Miles terrestres
Nuages Nuageux 1900 ft
Nuageux 2600 ft
Nuageux 3800 ft
indice de chaleur 77 ° F
Point de rosée 73 ° F
Humidité 89%
Précipitations pouce
Profondeur de la couche neigeuse Non disponible.
UV 5 sur 12
Pollen 9.40 sur 12
Qualité de l'air Non disponible.
Flu Activity Non disponible.
METAR KAPF 061553Z 26005KT 10SM BKN019 BKN026 BKN038 26/21 A3020 RMK AO2 SLP227 T02560206

More Conditions Fewer Conditions

Pression 30.20 pouce
Visibilité 10.0 Miles terrestres
Nuages Nuageux 1900 ft
Nuageux 2600 ft
Nuageux 3800 ft
indice de chaleur 77 ° F
Point de rosée 73 ° F
Humidité 89%
Précipitations pouce
Profondeur de la couche neigeuse Non disponible.
UV 5 sur 12
Pollen 9.40 sur 12
Qualité de l'air Non disponible.
Flu Activity Non disponible.
METAR KAPF 061553Z 26005KT 10SM BKN019 BKN026 BKN038 26/21 A3020 RMK AO2 SLP227 T02560206

More Conditions Fewer Conditions

10-Day Weather Forecast

Almanac

Astronomie

Mar. 06, 2015 Lever Coucher
Temps réel
Crépuscule civil
Crépuscule nautique
Crépuscule astronomique
Lune
Durée de lumière visible
Longueur du jour
Tomorrow will be .
, % of the Moon is Illuminated

Extrêmes aujourd'hui

State Highs State Lows

Community

WunderPhotos

Upload Photos

1,803,327 Photos téléchargées !

WunderBlogs® & News

Nearby

Qualité de l'air

  Qualité de l'air Indice de la qualité de l'air Polluant
Not available.

Épaisseur de neige

Station Depth Altitude

Activité sismique

Ville Distance Mag. Time & Date
Minimum magnitude displayed is 2.5.

Températures des eaux côtières

Lieu Température

Stations météo à proximité